sensor_id;sensor_type;location;lat;lon;timestamp;P1;durP1;ratioP1;P2;durP2;ratioP2
485;SDS011;229;48.734;9.340;2024-01-11T00:01:38;79.55;;;30.13;;
485;SDS011;229;48.734;9.340;2024-01-11T00:04:05;81.38;;;28.92;;
485;SDS011;229;48.734;9.340;2024-01-11T00:06:34;65.93;;;28.30;;
485;SDS011;229;48.734;9.340;2024-01-11T00:09:06;66.40;;;27.92;;
485;SDS011;229;48.734;9.340;2024-01-11T00:11:33;70.95;;;28.95;;
485;SDS011;229;48.734;9.340;2024-01-11T00:14:01;69.63;;;29.65;;
485;SDS011;229;48.734;9.340;2024-01-11T00:16:28;64.55;;;27.75;;
485;SDS011;229;48.734;9.340;2024-01-11T00:18:55;67.43;;;28.42;;
485;SDS011;229;48.734;9.340;2024-01-11T00:21:22;74.13;;;29.52;;
485;SDS011;229;48.734;9.340;2024-01-11T00:23:51;72.85;;;27.25;;
485;SDS011;229;48.734;9.340;2024-01-11T00:26:18;69.57;;;28.05;;
485;SDS011;229;48.734;9.340;2024-01-11T00:28:45;70.32;;;29.25;;
485;SDS011;229;48.734;9.340;2024-01-11T00:31:12;84.43;;;32.05;;
485;SDS011;229;48.734;9.340;2024-01-11T00:33:40;74.47;;;28.45;;
485;SDS011;229;48.734;9.340;2024-01-11T00:36:07;73.50;;;30.42;;
485;SDS011;229;48.734;9.340;2024-01-11T00:38:34;76.53;;;30.13;;
485;SDS011;229;48.734;9.340;2024-01-11T00:41:03;72.25;;;29.60;;
485;SDS011;229;48.734;9.340;2024-01-11T00:43:30;82.93;;;43.35;;
485;SDS011;229;48.734;9.340;2024-01-11T00:45:57;81.10;;;31.55;;
485;SDS011;229;48.734;9.340;2024-01-11T00:48:24;83.30;;;30.08;;
485;SDS011;229;48.734;9.340;2024-01-11T00:50:52;71.28;;;29.35;;
485;SDS011;229;48.734;9.340;2024-01-11T00:53:19;74.90;;;28.95;;
485;SDS011;229;48.734;9.340;2024-01-11T00:55:46;76.57;;;35.45;;
485;SDS011;229;48.734;9.340;2024-01-11T00:58:14;73.43;;;29.45;;
485;SDS011;229;48.734;9.340;2024-01-11T01:00:42;85.57;;;29.38;;
485;SDS011;229;48.734;9.340;2024-01-11T01:03:09;77.63;;;29.88;;
485;SDS011;229;48.734;9.340;2024-01-11T01:05:36;85.00;;;29.40;;
485;SDS011;229;48.734;9.340;2024-01-11T01:08:03;71.85;;;28.25;;
485;SDS011;229;48.734;9.340;2024-01-11T01:10:31;79.38;;;30.17;;
485;SDS011;229;48.734;9.340;2024-01-11T01:12:58;68.22;;;29.02;;
485;SDS011;229;48.734;9.340;2024-01-11T01:15:27;69.80;;;29.17;;
485;SDS011;229;48.734;9.340;2024-01-11T01:17:54;72.75;;;30.50;;
485;SDS011;229;48.734;9.340;2024-01-11T01:20:21;70.68;;;29.00;;
485;SDS011;229;48.734;9.340;2024-01-11T01:22:49;80.50;;;28.95;;
485;SDS011;229;48.734;9.340;2024-01-11T01:25:16;80.65;;;30.55;;
485;SDS011;229;48.734;9.340;2024-01-11T01:27:43;66.88;;;28.95;;
485;SDS011;229;48.734;9.340;2024-01-11T01:30:10;70.68;;;29.20;;
485;SDS011;229;48.734;9.340;2024-01-11T01:32:39;84.57;;;31.52;;
485;SDS011;229;48.734;9.340;2024-01-11T01:35:06;68.00;;;29.63;;
485;SDS011;229;48.734;9.340;2024-01-11T01:37:33;77.22;;;29.30;;
485;SDS011;229;48.734;9.340;2024-01-11T01:40:01;76.60;;;29.95;;
485;SDS011;229;48.734;9.340;2024-01-11T01:42:28;77.60;;;29.90;;
485;SDS011;229;48.734;9.340;2024-01-11T01:44:55;72.20;;;30.33;;
485;SDS011;229;48.734;9.340;2024-01-11T01:47:22;79.82;;;30.20;;
485;SDS011;229;48.734;9.340;2024-01-11T01:49:51;71.68;;;28.00;;
485;SDS011;229;48.734;9.340;2024-01-11T01:52:18;72.57;;;28.92;;
485;SDS011;229;48.734;9.340;2024-01-11T01:54:46;79.90;;;30.10;;
485;SDS011;229;48.734;9.340;2024-01-11T01:57:14;82.10;;;31.70;;
485;SDS011;229;48.734;9.340;2024-01-11T01:59:42;86.15;;;31.50;;
485;SDS011;229;48.734;9.340;2024-01-11T02:02:10;74.65;;;28.90;;
485;SDS011;229;48.734;9.340;2024-01-11T02:04:38;76.78;;;30.02;;
485;SDS011;229;48.734;9.340;2024-01-11T02:07:07;82.80;;;32.05;;
485;SDS011;229;48.734;9.340;2024-01-11T02:09:35;76.32;;;31.55;;
485;SDS011;229;48.734;9.340;2024-01-11T02:12:03;79.18;;;30.75;;
485;SDS011;229;48.734;9.340;2024-01-11T02:14:31;78.50;;;29.40;;
485;SDS011;229;48.734;9.340;2024-01-11T02:16:59;69.10;;;28.33;;
485;SDS011;229;48.734;9.340;2024-01-11T02:19:27;79.38;;;30.27;;
485;SDS011;229;48.734;9.340;2024-01-11T02:21:54;64.30;;;29.40;;
485;SDS011;229;48.734;9.340;2024-01-11T02:24:26;75.20;;;30.20;;
485;SDS011;229;48.734;9.340;2024-01-11T02:26:59;82.13;;;32.17;;
485;SDS011;229;48.734;9.340;2024-01-11T02:29:27;72.68;;;28.25;;
485;SDS011;229;48.734;9.340;2024-01-11T02:31:55;73.75;;;29.10;;
485;SDS011;229;48.734;9.340;2024-01-11T02:34:22;79.32;;;31.17;;
485;SDS011;229;48.734;9.340;2024-01-11T02:36:50;71.22;;;30.95;;
485;SDS011;229;48.734;9.340;2024-01-11T02:39:17;79.45;;;30.40;;
485;SDS011;229;48.734;9.340;2024-01-11T02:41:47;76.60;;;29.63;;
485;SDS011;229;48.734;9.340;2024-01-11T02:44:14;79.18;;;29.58;;
485;SDS011;229;48.734;9.340;2024-01-11T02:46:41;86.10;;;31.30;;
485;SDS011;229;48.734;9.340;2024-01-11T02:49:08;76.72;;;31.35;;
485;SDS011;229;48.734;9.340;2024-01-11T02:51:36;87.45;;;32.38;;
485;SDS011;229;48.734;9.340;2024-01-11T02:54:03;76.13;;;31.10;;
485;SDS011;229;48.734;9.340;2024-01-11T02:56:30;86.65;;;32.35;;
485;SDS011;229;48.734;9.340;2024-01-11T02:58:59;80.45;;;32.92;;
485;SDS011;229;48.734;9.340;2024-01-11T03:01:26;84.57;;;31.98;;
485;SDS011;229;48.734;9.340;2024-01-11T03:03:53;73.93;;;30.13;;
485;SDS011;229;48.734;9.340;2024-01-11T03:06:21;85.95;;;30.52;;
485;SDS011;229;48.734;9.340;2024-01-11T03:08:48;82.28;;;30.52;;
485;SDS011;229;48.734;9.340;2024-01-11T03:11:15;71.03;;;30.35;;
485;SDS011;229;48.734;9.340;2024-01-11T03:13:43;72.85;;;30.77;;
485;SDS011;229;48.734;9.340;2024-01-11T03:16:11;76.68;;;30.40;;
485;SDS011;229;48.734;9.340;2024-01-11T03:18:39;77.22;;;30.45;;
485;SDS011;229;48.734;9.340;2024-01-11T03:21:07;86.75;;;36.05;;
485;SDS011;229;48.734;9.340;2024-01-11T03:23:34;77.63;;;29.58;;
485;SDS011;229;48.734;9.340;2024-01-11T03:26:01;84.13;;;32.30;;
485;SDS011;229;48.734;9.340;2024-01-11T03:28:28;83.28;;;30.25;;
485;SDS011;229;48.734;9.340;2024-01-11T03:30:56;73.15;;;28.48;;
485;SDS011;229;48.734;9.340;2024-01-11T03:33:25;77.63;;;30.08;;
485;SDS011;229;48.734;9.340;2024-01-11T03:35:52;82.95;;;29.75;;
485;SDS011;229;48.734;9.340;2024-01-11T03:38:19;72.18;;;29.52;;
485;SDS011;229;48.734;9.340;2024-01-11T03:40:46;82.28;;;33.15;;
485;SDS011;229;48.734;9.340;2024-01-11T03:43:16;82.82;;;39.97;;
485;SDS011;229;48.734;9.340;2024-01-11T03:45:44;74.45;;;32.08;;
485;SDS011;229;48.734;9.340;2024-01-11T03:48:11;72.65;;;29.15;;
485;SDS011;229;48.734;9.340;2024-01-11T03:50:39;81.38;;;30.02;;
485;SDS011;229;48.734;9.340;2024-01-11T03:53:07;77.40;;;30.85;;
485;SDS011;229;48.734;9.340;2024-01-11T03:55:34;87.07;;;31.77;;
485;SDS011;229;48.734;9.340;2024-01-11T03:58:01;83.25;;;30.52;;
485;SDS011;229;48.734;9.340;2024-01-11T04:00:28;71.00;;;29.25;;
485;SDS011;229;48.734;9.340;2024-01-11T04:02:56;79.45;;;30.65;;
485;SDS011;229;48.734;9.340;2024-01-11T04:05:23;79.22;;;32.17;;
485;SDS011;229;48.734;9.340;2024-01-11T04:07:52;76.15;;;31.33;;
485;SDS011;229;48.734;9.340;2024-01-11T04:10:19;84.72;;;31.33;;
485;SDS011;229;48.734;9.340;2024-01-11T04:12:46;86.00;;;33.17;;
485;SDS011;229;48.734;9.340;2024-01-11T04:15:13;66.95;;;29.58;;
485;SDS011;229;48.734;9.340;2024-01-11T04:17:40;81.47;;;28.98;;
485;SDS011;229;48.734;9.340;2024-01-11T04:20:08;72.90;;;30.48;;
485;SDS011;229;48.734;9.340;2024-01-11T04:22:35;78.68;;;30.05;;
485;SDS011;229;48.734;9.340;2024-01-11T04:25:04;73.35;;;31.10;;
485;SDS011;229;48.734;9.340;2024-01-11T04:27:31;74.05;;;30.23;;
485;SDS011;229;48.734;9.340;2024-01-11T04:29:59;79.85;;;30.80;;
485;SDS011;229;48.734;9.340;2024-01-11T04:32:26;75.80;;;30.65;;
485;SDS011;229;48.734;9.340;2024-01-11T04:34:53;69.57;;;29.00;;
485;SDS011;229;48.734;9.340;2024-01-11T04:37:20;77.78;;;28.00;;
485;SDS011;229;48.734;9.340;2024-01-11T04:39:47;83.93;;;30.30;;
485;SDS011;229;48.734;9.340;2024-01-11T04:42:16;75.65;;;30.50;;
485;SDS011;229;48.734;9.340;2024-01-11T04:44:43;64.25;;;28.98;;
485;SDS011;229;48.734;9.340;2024-01-11T04:47:10;83.85;;;31.38;;
485;SDS011;229;48.734;9.340;2024-01-11T04:49:38;75.18;;;30.17;;
485;SDS011;229;48.734;9.340;2024-01-11T04:52:05;81.95;;;32.33;;
485;SDS011;229;48.734;9.340;2024-01-11T04:54:33;77.88;;;28.35;;
485;SDS011;229;48.734;9.340;2024-01-11T04:57:00;76.63;;;30.33;;
485;SDS011;229;48.734;9.340;2024-01-11T04:59:29;75.93;;;30.65;;
485;SDS011;229;48.734;9.340;2024-01-11T05:01:56;70.05;;;28.05;;
485;SDS011;229;48.734;9.340;2024-01-11T05:04:23;78.65;;;30.65;;
485;SDS011;229;48.734;9.340;2024-01-11T05:06:51;76.57;;;31.73;;
485;SDS011;229;48.734;9.340;2024-01-11T05:09:18;92.32;;;33.28;;
485;SDS011;229;48.734;9.340;2024-01-11T05:11:45;85.72;;;32.05;;
485;SDS011;229;48.734;9.340;2024-01-11T05:14:12;73.55;;;31.63;;
485;SDS011;229;48.734;9.340;2024-01-11T05:16:41;70.70;;;30.42;;
485;SDS011;229;48.734;9.340;2024-01-11T05:19:08;74.35;;;29.40;;
485;SDS011;229;48.734;9.340;2024-01-11T05:21:35;76.40;;;30.30;;
485;SDS011;229;48.734;9.340;2024-01-11T05:24:03;77.50;;;30.10;;
485;SDS011;229;48.734;9.340;2024-01-11T05:26:31;71.93;;;30.17;;
485;SDS011;229;48.734;9.340;2024-01-11T05:28:58;78.47;;;32.95;;
485;SDS011;229;48.734;9.340;2024-01-11T05:31:26;80.95;;;30.63;;
485;SDS011;229;48.734;9.340;2024-01-11T05:33:54;78.40;;;31.58;;
485;SDS011;229;48.734;9.340;2024-01-11T05:36:21;83.85;;;33.17;;
485;SDS011;229;48.734;9.340;2024-01-11T05:38:48;72.05;;;30.02;;
485;SDS011;229;48.734;9.340;2024-01-11T05:41:16;70.25;;;29.80;;
485;SDS011;229;48.734;9.340;2024-01-11T05:43:43;81.63;;;31.70;;
485;SDS011;229;48.734;9.340;2024-01-11T05:46:10;77.88;;;31.85;;
485;SDS011;229;48.734;9.340;2024-01-11T05:48:37;70.95;;;31.23;;
485;SDS011;229;48.734;9.340;2024-01-11T05:51:06;71.22;;;30.77;;
485;SDS011;229;48.734;9.340;2024-01-11T05:53:34;79.43;;;29.73;;
485;SDS011;229;48.734;9.340;2024-01-11T05:56:02;81.60;;;30.00;;
485;SDS011;229;48.734;9.340;2024-01-11T05:58:33;84.88;;;29.65;;
485;SDS011;229;48.734;9.340;2024-01-11T06:01:01;74.55;;;30.10;;
485;SDS011;229;48.734;9.340;2024-01-11T06:03:28;78.10;;;29.23;;
485;SDS011;229;48.734;9.340;2024-01-11T06:05:59;71.10;;;30.02;;
485;SDS011;229;48.734;9.340;2024-01-11T06:08:28;76.25;;;30.20;;
485;SDS011;229;48.734;9.340;2024-01-11T06:10:55;83.25;;;33.22;;
485;SDS011;229;48.734;9.340;2024-01-11T06:13:22;83.95;;;32.03;;
485;SDS011;229;48.734;9.340;2024-01-11T06:15:51;85.32;;;31.95;;
485;SDS011;229;48.734;9.340;2024-01-11T06:18:18;80.05;;;29.15;;
485;SDS011;229;48.734;9.340;2024-01-11T06:20:45;74.07;;;30.48;;
485;SDS011;229;48.734;9.340;2024-01-11T06:23:12;80.18;;;28.88;;
485;SDS011;229;48.734;9.340;2024-01-11T06:25:43;69.82;;;29.92;;
485;SDS011;229;48.734;9.340;2024-01-11T06:28:11;81.47;;;31.95;;
485;SDS011;229;48.734;9.340;2024-01-11T06:30:38;77.07;;;31.75;;
485;SDS011;229;48.734;9.340;2024-01-11T06:33:05;70.30;;;29.33;;
485;SDS011;229;48.734;9.340;2024-01-11T06:35:32;76.80;;;30.17;;
485;SDS011;229;48.734;9.340;2024-01-11T06:38:00;91.80;;;31.45;;
485;SDS011;229;48.734;9.340;2024-01-11T06:40:27;74.90;;;30.08;;
485;SDS011;229;48.734;9.340;2024-01-11T06:42:56;74.97;;;30.98;;
485;SDS011;229;48.734;9.340;2024-01-11T06:45:23;82.72;;;32.28;;
485;SDS011;229;48.734;9.340;2024-01-11T06:47:50;72.93;;;29.63;;
485;SDS011;229;48.734;9.340;2024-01-11T06:50:17;75.18;;;32.40;;
485;SDS011;229;48.734;9.340;2024-01-11T06:52:44;75.97;;;31.95;;
485;SDS011;229;48.734;9.340;2024-01-11T06:55:12;85.40;;;32.50;;
485;SDS011;229;48.734;9.340;2024-01-11T06:57:39;73.10;;;30.45;;
485;SDS011;229;48.734;9.340;2024-01-11T07:00:08;80.50;;;30.85;;
485;SDS011;229;48.734;9.340;2024-01-11T07:02:35;75.57;;;30.92;;
485;SDS011;229;48.734;9.340;2024-01-11T07:05:05;76.50;;;31.30;;
485;SDS011;229;48.734;9.340;2024-01-11T07:07:32;72.03;;;30.63;;
485;SDS011;229;48.734;9.340;2024-01-11T07:10:00;80.00;;;32.60;;
485;SDS011;229;48.734;9.340;2024-01-11T07:12:27;79.07;;;31.52;;
485;SDS011;229;48.734;9.340;2024-01-11T07:14:54;81.70;;;31.30;;
485;SDS011;229;48.734;9.340;2024-01-11T07:17:22;79.70;;;33.65;;
485;SDS011;229;48.734;9.340;2024-01-11T07:19:50;72.45;;;30.27;;
485;SDS011;229;48.734;9.340;2024-01-11T07:22:17;81.28;;;31.23;;
485;SDS011;229;48.734;9.340;2024-01-11T07:24:44;80.63;;;33.28;;
485;SDS011;229;48.734;9.340;2024-01-11T07:27:11;75.68;;;32.45;;
485;SDS011;229;48.734;9.340;2024-01-11T07:29:39;84.82;;;33.33;;
485;SDS011;229;48.734;9.340;2024-01-11T07:32:06;85.25;;;33.13;;
485;SDS011;229;48.734;9.340;2024-01-11T07:34:34;82.20;;;32.15;;
485;SDS011;229;48.734;9.340;2024-01-11T07:37:02;82.95;;;31.92;;
485;SDS011;229;48.734;9.340;2024-01-11T07:39:30;78.68;;;33.63;;
485;SDS011;229;48.734;9.340;2024-01-11T07:41:57;79.43;;;32.60;;
485;SDS011;229;48.734;9.340;2024-01-11T07:44:24;73.18;;;30.75;;
485;SDS011;229;48.734;9.340;2024-01-11T07:46:51;88.03;;;33.25;;
485;SDS011;229;48.734;9.340;2024-01-11T07:49:18;80.15;;;34.05;;
485;SDS011;229;48.734;9.340;2024-01-11T07:51:47;92.10;;;35.13;;
485;SDS011;229;48.734;9.340;2024-01-11T07:54:14;79.90;;;35.22;;
485;SDS011;229;48.734;9.340;2024-01-11T07:56:41;92.35;;;33.97;;
485;SDS011;229;48.734;9.340;2024-01-11T07:59:09;81.18;;;33.92;;
485;SDS011;229;48.734;9.340;2024-01-11T08:01:39;86.80;;;36.20;;
485;SDS011;229;48.734;9.340;2024-01-11T08:04:06;87.57;;;34.40;;
485;SDS011;229;48.734;9.340;2024-01-11T08:06:33;87.03;;;35.47;;
485;SDS011;229;48.734;9.340;2024-01-11T08:09:02;79.60;;;33.75;;
485;SDS011;229;48.734;9.340;2024-01-11T08:11:30;80.68;;;35.13;;
485;SDS011;229;48.734;9.340;2024-01-11T08:13:57;86.28;;;35.08;;
485;SDS011;229;48.734;9.340;2024-01-11T08:16:25;91.05;;;35.72;;
485;SDS011;229;48.734;9.340;2024-01-11T08:18:53;89.43;;;35.85;;
485;SDS011;229;48.734;9.340;2024-01-11T08:21:20;86.43;;;36.15;;
485;SDS011;229;48.734;9.340;2024-01-11T08:23:47;84.15;;;34.90;;
485;SDS011;229;48.734;9.340;2024-01-11T08:26:16;84.97;;;36.78;;
485;SDS011;229;48.734;9.340;2024-01-11T08:28:44;87.95;;;38.10;;
485;SDS011;229;48.734;9.340;2024-01-11T08:31:12;88.38;;;35.35;;
485;SDS011;229;48.734;9.340;2024-01-11T08:33:39;89.20;;;40.08;;
485;SDS011;229;48.734;9.340;2024-01-11T08:36:06;83.07;;;37.42;;
485;SDS011;229;48.734;9.340;2024-01-11T08:38:33;89.50;;;37.83;;
485;SDS011;229;48.734;9.340;2024-01-11T08:41:01;90.82;;;37.45;;
485;SDS011;229;48.734;9.340;2024-01-11T08:43:29;81.38;;;36.13;;
485;SDS011;229;48.734;9.340;2024-01-11T08:45:57;80.95;;;34.83;;
485;SDS011;229;48.734;9.340;2024-01-11T08:48:24;76.97;;;35.50;;
485;SDS011;229;48.734;9.340;2024-01-11T08:50:51;90.93;;;38.25;;
485;SDS011;229;48.734;9.340;2024-01-11T08:53:18;76.13;;;34.33;;
485;SDS011;229;48.734;9.340;2024-01-11T08:55:46;80.20;;;35.47;;
485;SDS011;229;48.734;9.340;2024-01-11T08:58:13;75.15;;;38.25;;
485;SDS011;229;48.734;9.340;2024-01-11T09:00:42;68.50;;;40.90;;
485;SDS011;229;48.734;9.340;2024-01-11T09:03:10;68.95;;;40.80;;
485;SDS011;229;48.734;9.340;2024-01-11T09:05:38;69.13;;;38.20;;
485;SDS011;229;48.734;9.340;2024-01-11T09:08:06;67.38;;;39.60;;
485;SDS011;229;48.734;9.340;2024-01-11T09:10:33;67.90;;;38.35;;
485;SDS011;229;48.734;9.340;2024-01-11T09:13:00;63.90;;;38.78;;
485;SDS011;229;48.734;9.340;2024-01-11T09:15:27;67.85;;;37.25;;
485;SDS011;229;48.734;9.340;2024-01-11T09:17:56;66.93;;;37.60;;
485;SDS011;229;48.734;9.340;2024-01-11T09:20:25;63.20;;;36.95;;
485;SDS011;229;48.734;9.340;2024-01-11T09:22:52;60.92;;;36.33;;
485;SDS011;229;48.734;9.340;2024-01-11T09:25:19;58.05;;;34.80;;
485;SDS011;229;48.734;9.340;2024-01-11T09:27:46;58.92;;;35.85;;
485;SDS011;229;48.734;9.340;2024-01-11T09:30:14;64.82;;;36.53;;
485;SDS011;229;48.734;9.340;2024-01-11T09:32:42;57.95;;;35.55;;
485;SDS011;229;48.734;9.340;2024-01-11T09:35:10;59.75;;;35.92;;
485;SDS011;229;48.734;9.340;2024-01-11T09:37:38;65.35;;;37.70;;
485;SDS011;229;48.734;9.340;2024-01-11T09:40:05;65.25;;;38.30;;
485;SDS011;229;48.734;9.340;2024-01-11T09:42:35;56.50;;;36.55;;
485;SDS011;229;48.734;9.340;2024-01-11T09:45:04;60.13;;;35.28;;
485;SDS011;229;48.734;9.340;2024-01-11T09:47:33;62.67;;;37.58;;
485;SDS011;229;48.734;9.340;2024-01-11T09:50:00;57.80;;;34.88;;
485;SDS011;229;48.734;9.340;2024-01-11T09:52:30;58.45;;;35.70;;
485;SDS011;229;48.734;9.340;2024-01-11T09:54:58;56.20;;;34.50;;
485;SDS011;229;48.734;9.340;2024-01-11T09:57:27;54.28;;;33.67;;
485;SDS011;229;48.734;9.340;2024-01-11T09:59:56;64.32;;;36.45;;
485;SDS011;229;48.734;9.340;2024-01-11T10:02:23;54.85;;;35.75;;
485;SDS011;229;48.734;9.340;2024-01-11T10:04:51;62.28;;;36.30;;
485;SDS011;229;48.734;9.340;2024-01-11T10:07:19;57.83;;;35.33;;
485;SDS011;229;48.734;9.340;2024-01-11T10:09:49;59.38;;;35.03;;
485;SDS011;229;48.734;9.340;2024-01-11T10:12:17;57.42;;;35.28;;
485;SDS011;229;48.734;9.340;2024-01-11T10:14:48;61.70;;;35.30;;
485;SDS011;229;48.734;9.340;2024-01-11T10:17:16;62.05;;;37.83;;
485;SDS011;229;48.734;9.340;2024-01-11T10:19:44;61.50;;;36.22;;
485;SDS011;229;48.734;9.340;2024-01-11T10:22:14;62.78;;;37.10;;
485;SDS011;229;48.734;9.340;2024-01-11T10:24:42;66.05;;;37.33;;
485;SDS011;229;48.734;9.340;2024-01-11T10:27:11;64.03;;;39.33;;
485;SDS011;229;48.734;9.340;2024-01-11T10:29:38;61.25;;;36.60;;
485;SDS011;229;48.734;9.340;2024-01-11T10:32:05;68.47;;;40.20;;
485;SDS011;229;48.734;9.340;2024-01-11T10:34:34;67.15;;;38.13;;
485;SDS011;229;48.734;9.340;2024-01-11T10:37:05;63.53;;;38.28;;
485;SDS011;229;48.734;9.340;2024-01-11T10:39:32;62.88;;;38.78;;
485;SDS011;229;48.734;9.340;2024-01-11T10:42:03;61.92;;;37.63;;
485;SDS011;229;48.734;9.340;2024-01-11T10:44:33;63.70;;;37.10;;
485;SDS011;229;48.734;9.340;2024-01-11T10:47:02;67.57;;;41.20;;
485;SDS011;229;48.734;9.340;2024-01-11T10:49:30;69.90;;;41.08;;
485;SDS011;229;48.734;9.340;2024-01-11T10:51:59;68.32;;;39.47;;
485;SDS011;229;48.734;9.340;2024-01-11T10:54:27;66.93;;;39.50;;
485;SDS011;229;48.734;9.340;2024-01-11T10:56:55;59.33;;;37.63;;
485;SDS011;229;48.734;9.340;2024-01-11T10:59:24;62.40;;;37.90;;
485;SDS011;229;48.734;9.340;2024-01-11T11:01:53;65.57;;;40.30;;
485;SDS011;229;48.734;9.340;2024-01-11T11:04:22;62.20;;;37.38;;
485;SDS011;229;48.734;9.340;2024-01-11T11:06:50;64.80;;;38.17;;
485;SDS011;229;48.734;9.340;2024-01-11T11:09:18;64.53;;;37.45;;
485;SDS011;229;48.734;9.340;2024-01-11T11:11:46;61.75;;;37.38;;
485;SDS011;229;48.734;9.340;2024-01-11T11:14:13;61.75;;;37.45;;
485;SDS011;229;48.734;9.340;2024-01-11T11:16:42;66.40;;;39.30;;
485;SDS011;229;48.734;9.340;2024-01-11T11:19:13;66.70;;;38.13;;
485;SDS011;229;48.734;9.340;2024-01-11T11:21:44;61.25;;;36.42;;
485;SDS011;229;48.734;9.340;2024-01-11T11:24:11;62.30;;;37.70;;
485;SDS011;229;48.734;9.340;2024-01-11T11:26:38;64.35;;;38.00;;
485;SDS011;229;48.734;9.340;2024-01-11T11:29:05;67.13;;;38.13;;
485;SDS011;229;48.734;9.340;2024-01-11T11:31:36;63.55;;;39.38;;
485;SDS011;229;48.734;9.340;2024-01-11T11:34:03;61.00;;;38.35;;
485;SDS011;229;48.734;9.340;2024-01-11T11:36:32;62.70;;;38.00;;
485;SDS011;229;48.734;9.340;2024-01-11T11:38:59;63.83;;;39.10;;
485;SDS011;229;48.734;9.340;2024-01-11T11:41:27;63.38;;;38.13;;
485;SDS011;229;48.734;9.340;2024-01-11T11:43:54;64.85;;;37.58;;
485;SDS011;229;48.734;9.340;2024-01-11T11:46:21;63.20;;;39.42;;
485;SDS011;229;48.734;9.340;2024-01-11T11:48:50;61.78;;;37.40;;
485;SDS011;229;48.734;9.340;2024-01-11T11:51:18;60.38;;;37.00;;
485;SDS011;229;48.734;9.340;2024-01-11T11:53:47;60.08;;;37.20;;
485;SDS011;229;48.734;9.340;2024-01-11T11:56:15;62.08;;;38.35;;
485;SDS011;229;48.734;9.340;2024-01-11T11:58:44;61.22;;;37.35;;
485;SDS011;229;48.734;9.340;2024-01-11T12:01:11;80.20;;;40.28;;
485;SDS011;229;48.734;9.340;2024-01-11T12:03:40;63.28;;;38.63;;
485;SDS011;229;48.734;9.340;2024-01-11T12:06:11;59.70;;;37.42;;
485;SDS011;229;48.734;9.340;2024-01-11T12:08:40;66.15;;;38.90;;
485;SDS011;229;48.734;9.340;2024-01-11T12:11:09;72.68;;;43.25;;
485;SDS011;229;48.734;9.340;2024-01-11T12:13:39;69.25;;;40.60;;
485;SDS011;229;48.734;9.340;2024-01-11T12:16:07;60.88;;;39.35;;
485;SDS011;229;48.734;9.340;2024-01-11T12:18:34;70.13;;;40.28;;
485;SDS011;229;48.734;9.340;2024-01-11T12:21:01;71.53;;;40.75;;
485;SDS011;229;48.734;9.340;2024-01-11T12:23:28;62.05;;;38.13;;
485;SDS011;229;48.734;9.340;2024-01-11T12:25:56;63.67;;;37.88;;
485;SDS011;229;48.734;9.340;2024-01-11T12:28:25;69.13;;;41.25;;
485;SDS011;229;48.734;9.340;2024-01-11T12:30:52;75.10;;;41.53;;
485;SDS011;229;48.734;9.340;2024-01-11T12:33:20;67.65;;;41.63;;
485;SDS011;229;48.734;9.340;2024-01-11T12:35:48;66.32;;;39.75;;
485;SDS011;229;48.734;9.340;2024-01-11T12:38:15;63.22;;;40.17;;
485;SDS011;229;48.734;9.340;2024-01-11T12:40:42;72.40;;;41.50;;
485;SDS011;229;48.734;9.340;2024-01-11T12:43:11;67.78;;;40.95;;
485;SDS011;229;48.734;9.340;2024-01-11T12:45:40;61.85;;;38.80;;
485;SDS011;229;48.734;9.340;2024-01-11T12:48:07;61.53;;;39.20;;
485;SDS011;229;48.734;9.340;2024-01-11T12:50:34;69.60;;;42.70;;
485;SDS011;229;48.734;9.340;2024-01-11T12:53:06;72.30;;;40.85;;
485;SDS011;229;48.734;9.340;2024-01-11T12:55:33;66.53;;;40.97;;
485;SDS011;229;48.734;9.340;2024-01-11T12:58:04;69.70;;;40.55;;
485;SDS011;229;48.734;9.340;2024-01-11T13:00:32;59.35;;;39.13;;
485;SDS011;229;48.734;9.340;2024-01-11T13:03:00;62.95;;;40.78;;
485;SDS011;229;48.734;9.340;2024-01-11T13:05:28;62.53;;;36.80;;
485;SDS011;229;48.734;9.340;2024-01-11T13:07:59;63.72;;;39.00;;
485;SDS011;229;48.734;9.340;2024-01-11T13:10:27;61.15;;;37.97;;
485;SDS011;229;48.734;9.340;2024-01-11T13:12:55;63.35;;;38.97;;
485;SDS011;229;48.734;9.340;2024-01-11T13:15:23;60.95;;;36.67;;
485;SDS011;229;48.734;9.340;2024-01-11T13:17:50;59.50;;;35.50;;
485;SDS011;229;48.734;9.340;2024-01-11T13:20:19;61.63;;;36.70;;
485;SDS011;229;48.734;9.340;2024-01-11T13:22:47;53.00;;;34.70;;
485;SDS011;229;48.734;9.340;2024-01-11T13:25:14;54.83;;;36.10;;
485;SDS011;229;48.734;9.340;2024-01-11T13:27:41;57.90;;;35.70;;
485;SDS011;229;48.734;9.340;2024-01-11T13:30:08;56.67;;;35.13;;
485;SDS011;229;48.734;9.340;2024-01-11T13:32:35;55.70;;;35.40;;
485;SDS011;229;48.734;9.340;2024-01-11T13:35:03;65.13;;;36.72;;
485;SDS011;229;48.734;9.340;2024-01-11T13:37:32;69.22;;;38.25;;
485;SDS011;229;48.734;9.340;2024-01-11T13:39:59;58.28;;;36.60;;
485;SDS011;229;48.734;9.340;2024-01-11T13:42:26;56.42;;;35.58;;
485;SDS011;229;48.734;9.340;2024-01-11T13:44:53;64.32;;;37.88;;
485;SDS011;229;48.734;9.340;2024-01-11T13:47:21;59.63;;;37.58;;
485;SDS011;229;48.734;9.340;2024-01-11T13:49:48;57.80;;;37.17;;
485;SDS011;229;48.734;9.340;2024-01-11T13:52:15;56.42;;;36.25;;
485;SDS011;229;48.734;9.340;2024-01-11T13:54:44;70.70;;;39.55;;
485;SDS011;229;48.734;9.340;2024-01-11T13:57:11;57.42;;;38.20;;
485;SDS011;229;48.734;9.340;2024-01-11T13:59:38;64.28;;;39.03;;
485;SDS011;229;48.734;9.340;2024-01-11T14:02:05;63.33;;;38.65;;
485;SDS011;229;48.734;9.340;2024-01-11T14:04:32;59.08;;;37.45;;
485;SDS011;229;48.734;9.340;2024-01-11T14:07:00;61.85;;;39.75;;
485;SDS011;229;48.734;9.340;2024-01-11T14:09:28;62.10;;;39.05;;
485;SDS011;229;48.734;9.340;2024-01-11T14:11:56;65.07;;;39.20;;
485;SDS011;229;48.734;9.340;2024-01-11T14:14:23;61.15;;;37.30;;
485;SDS011;229;48.734;9.340;2024-01-11T14:16:51;66.00;;;38.67;;
485;SDS011;229;48.734;9.340;2024-01-11T14:19:18;62.60;;;39.30;;
485;SDS011;229;48.734;9.340;2024-01-11T14:21:46;65.82;;;40.28;;
485;SDS011;229;48.734;9.340;2024-01-11T14:24:14;67.75;;;40.50;;
485;SDS011;229;48.734;9.340;2024-01-11T14:26:41;58.28;;;37.83;;
485;SDS011;229;48.734;9.340;2024-01-11T14:29:10;63.55;;;39.17;;
485;SDS011;229;48.734;9.340;2024-01-11T14:31:37;62.35;;;38.58;;
485;SDS011;229;48.734;9.340;2024-01-11T14:34:04;65.35;;;39.63;;
485;SDS011;229;48.734;9.340;2024-01-11T14:36:31;64.07;;;38.45;;
485;SDS011;229;48.734;9.340;2024-01-11T14:38:59;62.35;;;38.58;;
485;SDS011;229;48.734;9.340;2024-01-11T14:41:29;67.55;;;40.60;;
485;SDS011;229;48.734;9.340;2024-01-11T14:43:56;62.90;;;39.35;;
485;SDS011;229;48.734;9.340;2024-01-11T14:46:26;67.13;;;40.13;;
485;SDS011;229;48.734;9.340;2024-01-11T14:48:53;61.53;;;38.25;;
485;SDS011;229;48.734;9.340;2024-01-11T14:51:20;63.95;;;40.70;;
485;SDS011;229;48.734;9.340;2024-01-11T14:53:48;63.60;;;39.92;;
485;SDS011;229;48.734;9.340;2024-01-11T14:56:16;68.55;;;40.85;;
485;SDS011;229;48.734;9.340;2024-01-11T14:58:43;62.78;;;40.22;;
485;SDS011;229;48.734;9.340;2024-01-11T15:01:10;64.97;;;42.03;;
485;SDS011;229;48.734;9.340;2024-01-11T15:03:40;66.53;;;40.05;;
485;SDS011;229;48.734;9.340;2024-01-11T15:06:07;65.70;;;40.45;;
485;SDS011;229;48.734;9.340;2024-01-11T15:08:34;66.50;;;40.55;;
485;SDS011;229;48.734;9.340;2024-01-11T15:11:01;68.78;;;41.85;;
485;SDS011;229;48.734;9.340;2024-01-11T15:13:29;66.90;;;41.67;;
485;SDS011;229;48.734;9.340;2024-01-11T15:15:58;68.35;;;39.92;;
485;SDS011;229;48.734;9.340;2024-01-11T15:18:26;69.90;;;41.80;;